sensor_id;sensor_type;location;lat;lon;timestamp;P1;durP1;ratioP1;P2;durP2;ratioP2
44694;SDS011;32845;59.422;17.930;2023-03-18T00:00:16;20.83;;;6.35;;
44694;SDS011;32845;59.422;17.930;2023-03-18T00:04:47;20.80;;;6.00;;
44694;SDS011;32845;59.422;17.930;2023-03-18T00:09:18;22.42;;;7.05;;
44694;SDS011;32845;59.422;17.930;2023-03-18T00:13:50;25.80;;;6.95;;
44694;SDS011;32845;59.422;17.930;2023-03-18T00:18:21;24.23;;;6.97;;
44694;SDS011;32845;59.422;17.930;2023-03-18T00:22:52;19.30;;;6.88;;
44694;SDS011;32845;59.422;17.930;2023-03-18T00:27:23;27.67;;;6.45;;
44694;SDS011;32845;59.422;17.930;2023-03-18T00:31:54;26.13;;;7.38;;
44694;SDS011;32845;59.422;17.930;2023-03-18T00:36:26;23.50;;;7.70;;
44694;SDS011;32845;59.422;17.930;2023-03-18T00:40:57;27.33;;;7.55;;
44694;SDS011;32845;59.422;17.930;2023-03-18T00:45:39;24.95;;;6.97;;
44694;SDS011;32845;59.422;17.930;2023-03-18T00:50:11;23.52;;;6.40;;
44694;SDS011;32845;59.422;17.930;2023-03-18T00:54:42;28.55;;;7.13;;
44694;SDS011;32845;59.422;17.930;2023-03-18T00:59:13;26.15;;;7.15;;
44694;SDS011;32845;59.422;17.930;2023-03-18T01:03:44;24.23;;;7.90;;
44694;SDS011;32845;59.422;17.930;2023-03-18T01:08:16;22.80;;;6.97;;
44694;SDS011;32845;59.422;17.930;2023-03-18T01:12:48;22.83;;;6.97;;
44694;SDS011;32845;59.422;17.930;2023-03-18T01:17:19;15.68;;;6.28;;
44694;SDS011;32845;59.422;17.930;2023-03-18T01:21:49;23.63;;;7.55;;
44694;SDS011;32845;59.422;17.930;2023-03-18T01:26:20;25.08;;;7.20;;
44694;SDS011;32845;59.422;17.930;2023-03-18T01:30:52;22.20;;;7.65;;
44694;SDS011;32845;59.422;17.930;2023-03-18T01:35:24;27.50;;;6.43;;
44694;SDS011;32845;59.422;17.930;2023-03-18T01:39:56;28.85;;;7.13;;
44694;SDS011;32845;59.422;17.930;2023-03-18T01:44:27;21.48;;;7.03;;
44694;SDS011;32845;59.422;17.930;2023-03-18T01:48:59;26.48;;;6.82;;
44694;SDS011;32845;59.422;17.930;2023-03-18T01:53:34;16.50;;;6.28;;
44694;SDS011;32845;59.422;17.930;2023-03-18T01:58:14;31.10;;;7.50;;
44694;SDS011;32845;59.422;17.930;2023-03-18T02:02:50;23.65;;;7.65;;
44694;SDS011;32845;59.422;17.930;2023-03-18T02:07:24;23.58;;;6.53;;
44694;SDS011;32845;59.422;17.930;2023-03-18T02:11:56;25.65;;;7.55;;
44694;SDS011;32845;59.422;17.930;2023-03-18T02:16:33;26.55;;;7.85;;
44694;SDS011;32845;59.422;17.930;2023-03-18T02:31:17;27.23;;;8.27;;
44694;SDS011;32845;59.422;17.930;2023-03-18T02:35:51;22.83;;;8.07;;
44694;SDS011;32845;59.422;17.930;2023-03-18T02:40:29;24.13;;;8.10;;
44694;SDS011;32845;59.422;17.930;2023-03-18T02:45:05;25.27;;;8.18;;
44694;SDS011;32845;59.422;17.930;2023-03-18T02:49:42;28.70;;;8.75;;
44694;SDS011;32845;59.422;17.930;2023-03-18T02:54:14;27.60;;;8.90;;
44694;SDS011;32845;59.422;17.930;2023-03-18T02:58:49;24.10;;;8.57;;
44694;SDS011;32845;59.422;17.930;2023-03-18T03:03:20;21.85;;;8.07;;
44694;SDS011;32845;59.422;17.930;2023-03-18T03:07:51;22.50;;;8.35;;
44694;SDS011;32845;59.422;17.930;2023-03-18T03:12:22;23.95;;;9.73;;
44694;SDS011;32845;59.422;17.930;2023-03-18T03:16:52;20.10;;;8.27;;
44694;SDS011;32845;59.422;17.930;2023-03-18T03:21:23;27.65;;;10.02;;
44694;SDS011;32845;59.422;17.930;2023-03-18T03:25:54;28.20;;;9.80;;
44694;SDS011;32845;59.422;17.930;2023-03-18T03:30:26;26.10;;;9.10;;
44694;SDS011;32845;59.422;17.930;2023-03-18T03:34:57;27.48;;;9.32;;
44694;SDS011;32845;59.422;17.930;2023-03-18T03:39:27;31.20;;;8.88;;
44694;SDS011;32845;59.422;17.930;2023-03-18T03:43:58;23.60;;;8.75;;
44694;SDS011;32845;59.422;17.930;2023-03-18T03:48:29;25.05;;;8.63;;
44694;SDS011;32845;59.422;17.930;2023-03-18T03:53:00;20.30;;;7.93;;
44694;SDS011;32845;59.422;17.930;2023-03-18T03:57:33;21.27;;;9.10;;
44694;SDS011;32845;59.422;17.930;2023-03-18T04:02:04;43.17;;;9.77;;
44694;SDS011;32845;59.422;17.930;2023-03-18T04:06:35;20.92;;;7.78;;
44694;SDS011;32845;59.422;17.930;2023-03-18T04:11:06;19.70;;;8.13;;
44694;SDS011;32845;59.422;17.930;2023-03-18T04:15:36;25.65;;;9.07;;
44694;SDS011;32845;59.422;17.930;2023-03-18T04:20:07;19.17;;;8.52;;
44694;SDS011;32845;59.422;17.930;2023-03-18T04:24:39;22.90;;;8.20;;
44694;SDS011;32845;59.422;17.930;2023-03-18T04:29:10;22.55;;;8.55;;
44694;SDS011;32845;59.422;17.930;2023-03-18T04:33:41;24.52;;;8.90;;
44694;SDS011;32845;59.422;17.930;2023-03-18T04:38:13;28.60;;;9.80;;
44694;SDS011;32845;59.422;17.930;2023-03-18T04:42:44;25.25;;;9.55;;
44694;SDS011;32845;59.422;17.930;2023-03-18T04:47:16;24.40;;;9.48;;
44694;SDS011;32845;59.422;17.930;2023-03-18T04:51:47;26.85;;;9.45;;
44694;SDS011;32845;59.422;17.930;2023-03-18T04:56:18;22.23;;;8.57;;
44694;SDS011;32845;59.422;17.930;2023-03-18T05:00:49;22.30;;;8.80;;
44694;SDS011;32845;59.422;17.930;2023-03-18T05:05:20;27.75;;;9.85;;
44694;SDS011;32845;59.422;17.930;2023-03-18T05:09:50;22.27;;;8.85;;
44694;SDS011;32845;59.422;17.930;2023-03-18T05:14:21;21.98;;;9.13;;
44694;SDS011;32845;59.422;17.930;2023-03-18T05:18:52;26.02;;;9.88;;
44694;SDS011;32845;59.422;17.930;2023-03-18T05:23:22;20.48;;;9.48;;
44694;SDS011;32845;59.422;17.930;2023-03-18T05:27:53;26.38;;;9.88;;
44694;SDS011;32845;59.422;17.930;2023-03-18T05:32:26;35.35;;;9.93;;
44694;SDS011;32845;59.422;17.930;2023-03-18T05:36:57;30.23;;;10.57;;
44694;SDS011;32845;59.422;17.930;2023-03-18T05:41:27;30.13;;;10.85;;
44694;SDS011;32845;59.422;17.930;2023-03-18T05:45:58;34.50;;;11.48;;
44694;SDS011;32845;59.422;17.930;2023-03-18T05:50:30;28.20;;;10.73;;
44694;SDS011;32845;59.422;17.930;2023-03-18T05:55:02;29.20;;;11.45;;
44694;SDS011;32845;59.422;17.930;2023-03-18T05:59:33;25.48;;;10.40;;
44694;SDS011;32845;59.422;17.930;2023-03-18T06:04:04;31.27;;;10.95;;
44694;SDS011;32845;59.422;17.930;2023-03-18T06:08:38;24.48;;;9.88;;
44694;SDS011;32845;59.422;17.930;2023-03-18T06:13:09;37.35;;;11.13;;
44694;SDS011;32845;59.422;17.930;2023-03-18T06:17:40;25.98;;;10.13;;
44694;SDS011;32845;59.422;17.930;2023-03-18T06:22:11;26.50;;;10.48;;
44694;SDS011;32845;59.422;17.930;2023-03-18T06:26:42;28.15;;;10.93;;
44694;SDS011;32845;59.422;17.930;2023-03-18T06:31:13;27.30;;;11.13;;
44694;SDS011;32845;59.422;17.930;2023-03-18T06:35:43;31.55;;;10.25;;
44694;SDS011;32845;59.422;17.930;2023-03-18T06:40:17;29.05;;;10.85;;
44694;SDS011;32845;59.422;17.930;2023-03-18T06:44:48;27.33;;;10.48;;
44694;SDS011;32845;59.422;17.930;2023-03-18T06:49:22;33.53;;;11.43;;
44694;SDS011;32845;59.422;17.930;2023-03-18T06:53:53;29.63;;;11.27;;
44694;SDS011;32845;59.422;17.930;2023-03-18T06:58:24;40.40;;;12.38;;
44694;SDS011;32845;59.422;17.930;2023-03-18T07:02:54;38.65;;;11.20;;
44694;SDS011;32845;59.422;17.930;2023-03-18T07:07:25;29.80;;;11.35;;
44694;SDS011;32845;59.422;17.930;2023-03-18T07:11:57;27.60;;;9.93;;
44694;SDS011;32845;59.422;17.930;2023-03-18T07:16:28;31.67;;;9.65;;
44694;SDS011;32845;59.422;17.930;2023-03-18T07:20:59;32.60;;;10.93;;
44694;SDS011;32845;59.422;17.930;2023-03-18T07:25:30;29.77;;;10.02;;
44694;SDS011;32845;59.422;17.930;2023-03-18T07:30:01;34.78;;;11.05;;
44694;SDS011;32845;59.422;17.930;2023-03-18T07:34:32;22.60;;;10.07;;
44694;SDS011;32845;59.422;17.930;2023-03-18T07:39:04;33.13;;;9.90;;
44694;SDS011;32845;59.422;17.930;2023-03-18T07:43:36;26.92;;;9.40;;
44694;SDS011;32845;59.422;17.930;2023-03-18T07:48:09;39.10;;;10.38;;
44694;SDS011;32845;59.422;17.930;2023-03-18T07:52:39;25.77;;;10.25;;
44694;SDS011;32845;59.422;17.930;2023-03-18T07:57:10;34.25;;;11.27;;
44694;SDS011;32845;59.422;17.930;2023-03-18T08:01:42;40.55;;;10.43;;
44694;SDS011;32845;59.422;17.930;2023-03-18T08:06:13;35.97;;;11.00;;
44694;SDS011;32845;59.422;17.930;2023-03-18T08:10:45;31.70;;;10.52;;
44694;SDS011;32845;59.422;17.930;2023-03-18T08:15:15;25.98;;;10.43;;
44694;SDS011;32845;59.422;17.930;2023-03-18T08:19:46;26.70;;;9.82;;
44694;SDS011;32845;59.422;17.930;2023-03-18T08:24:18;31.60;;;11.60;;
44694;SDS011;32845;59.422;17.930;2023-03-18T08:28:48;36.13;;;11.52;;
44694;SDS011;32845;59.422;17.930;2023-03-18T08:33:19;28.60;;;10.00;;
44694;SDS011;32845;59.422;17.930;2023-03-18T08:37:50;28.05;;;10.52;;
44694;SDS011;32845;59.422;17.930;2023-03-18T08:42:20;29.73;;;10.38;;
44694;SDS011;32845;59.422;17.930;2023-03-18T08:46:51;25.80;;;10.30;;
44694;SDS011;32845;59.422;17.930;2023-03-18T08:51:22;34.03;;;11.25;;
44694;SDS011;32845;59.422;17.930;2023-03-18T08:55:52;33.88;;;10.43;;
44694;SDS011;32845;59.422;17.930;2023-03-18T09:00:23;29.45;;;9.85;;
44694;SDS011;32845;59.422;17.930;2023-03-18T09:04:54;26.65;;;10.52;;
44694;SDS011;32845;59.422;17.930;2023-03-18T09:09:25;30.20;;;10.95;;
44694;SDS011;32845;59.422;17.930;2023-03-18T09:13:56;29.80;;;10.57;;
44694;SDS011;32845;59.422;17.930;2023-03-18T09:18:26;33.28;;;10.60;;
44694;SDS011;32845;59.422;17.930;2023-03-18T09:22:58;36.55;;;11.02;;
44694;SDS011;32845;59.422;17.930;2023-03-18T09:27:29;30.23;;;9.20;;
44694;SDS011;32845;59.422;17.930;2023-03-18T09:32:01;28.83;;;10.18;;
44694;SDS011;32845;59.422;17.930;2023-03-18T09:36:31;30.10;;;11.10;;
44694;SDS011;32845;59.422;17.930;2023-03-18T09:50:39;26.27;;;9.85;;
44694;SDS011;32845;59.422;17.930;2023-03-18T09:55:36;25.60;;;10.88;;
44694;SDS011;32845;59.422;17.930;2023-03-18T10:00:17;21.93;;;10.03;;
44694;SDS011;32845;59.422;17.930;2023-03-18T10:09:36;30.00;;;9.70;;
44694;SDS011;32845;59.422;17.930;2023-03-18T10:18:55;24.80;;;10.00;;
44694;SDS011;32845;59.422;17.930;2023-03-18T10:33:21;20.05;;;9.27;;
44694;SDS011;32845;59.422;17.930;2023-03-18T10:38:01;19.58;;;8.48;;
44694;SDS011;32845;59.422;17.930;2023-03-18T10:42:36;22.27;;;9.83;;
44694;SDS011;32845;59.422;17.930;2023-03-18T10:47:12;20.70;;;9.13;;
44694;SDS011;32845;59.422;17.930;2023-03-18T10:52:06;16.38;;;7.97;;
44694;SDS011;32845;59.422;17.930;2023-03-18T10:56:50;18.63;;;8.52;;
44694;SDS011;32845;59.422;17.930;2023-03-18T11:01:22;20.95;;;7.80;;
44694;SDS011;32845;59.422;17.930;2023-03-18T11:05:58;21.88;;;9.25;;
44694;SDS011;32845;59.422;17.930;2023-03-18T11:10:35;19.80;;;8.57;;
44694;SDS011;32845;59.422;17.930;2023-03-18T11:15:09;23.58;;;8.85;;
44694;SDS011;32845;59.422;17.930;2023-03-18T11:19:46;23.92;;;8.70;;
44694;SDS011;32845;59.422;17.930;2023-03-18T11:24:25;21.70;;;8.82;;
44694;SDS011;32845;59.422;17.930;2023-03-18T11:33:40;15.90;;;7.82;;
44694;SDS011;32845;59.422;17.930;2023-03-18T11:38:18;21.42;;;8.80;;
44694;SDS011;32845;59.422;17.930;2023-03-18T11:43:00;25.23;;;8.75;;
44694;SDS011;32845;59.422;17.930;2023-03-18T11:47:32;18.73;;;8.65;;
44694;SDS011;32845;59.422;17.930;2023-03-18T11:52:24;27.15;;;9.45;;
44694;SDS011;32845;59.422;17.930;2023-03-18T11:56:58;28.42;;;9.48;;
44694;SDS011;32845;59.422;17.930;2023-03-18T12:11:45;15.77;;;8.13;;
44694;SDS011;32845;59.422;17.930;2023-03-18T12:41:18;22.45;;;9.88;;
44694;SDS011;32845;59.422;17.930;2023-03-18T12:46:03;21.13;;;9.48;;
44694;SDS011;32845;59.422;17.930;2023-03-18T12:50:53;22.20;;;9.30;;
44694;SDS011;32845;59.422;17.930;2023-03-18T12:55:29;22.85;;;9.52;;
44694;SDS011;32845;59.422;17.930;2023-03-18T13:00:05;25.90;;;10.05;;
44694;SDS011;32845;59.422;17.930;2023-03-18T13:04:52;25.42;;;10.10;;
44694;SDS011;32845;59.422;17.930;2023-03-18T13:09:43;26.98;;;10.65;;
44694;SDS011;32845;59.422;17.930;2023-03-18T13:14:23;19.67;;;9.18;;
44694;SDS011;32845;59.422;17.930;2023-03-18T13:19:11;26.58;;;10.35;;
44694;SDS011;32845;59.422;17.930;2023-03-18T13:24:06;27.25;;;11.23;;
44694;SDS011;32845;59.422;17.930;2023-03-18T13:34:12;28.63;;;11.52;;
44694;SDS011;32845;59.422;17.930;2023-03-18T13:43:12;29.35;;;10.90;;
44694;SDS011;32845;59.422;17.930;2023-03-18T13:47:45;32.22;;;11.95;;
44694;SDS011;32845;59.422;17.930;2023-03-18T13:52:39;31.92;;;11.52;;
44694;SDS011;32845;59.422;17.930;2023-03-18T13:57:30;30.25;;;11.63;;
44694;SDS011;32845;59.422;17.930;2023-03-18T14:11:43;28.80;;;11.07;;
44694;SDS011;32845;59.422;17.930;2023-03-18T14:16:22;33.92;;;12.30;;
44694;SDS011;32845;59.422;17.930;2023-03-18T14:20:58;39.70;;;11.95;;
44694;SDS011;32845;59.422;17.930;2023-03-18T14:35:24;40.92;;;12.02;;
44694;SDS011;32845;59.422;17.930;2023-03-18T14:40:01;27.27;;;11.20;;
44694;SDS011;32845;59.422;17.930;2023-03-18T14:44:46;25.30;;;12.05;;
44694;SDS011;32845;59.422;17.930;2023-03-18T14:54:18;38.67;;;12.52;;
44694;SDS011;32845;59.422;17.930;2023-03-18T14:58:53;28.55;;;11.75;;
44694;SDS011;32845;59.422;17.930;2023-03-18T15:03:28;34.05;;;12.95;;
44694;SDS011;32845;59.422;17.930;2023-03-18T15:08:00;29.02;;;11.98;;
44694;SDS011;32845;59.422;17.930;2023-03-18T15:12:31;32.20;;;13.02;;
44694;SDS011;32845;59.422;17.930;2023-03-18T15:17:03;30.25;;;11.55;;
44694;SDS011;32845;59.422;17.930;2023-03-18T15:21:41;31.83;;;12.00;;
44694;SDS011;32845;59.422;17.930;2023-03-18T15:30:58;30.98;;;12.13;;
44694;SDS011;32845;59.422;17.930;2023-03-18T15:35:30;36.22;;;11.25;;
44694;SDS011;32845;59.422;17.930;2023-03-18T15:40:14;31.83;;;12.00;;
44694;SDS011;32845;59.422;17.930;2023-03-18T15:44:59;26.17;;;11.77;;
44694;SDS011;32845;59.422;17.930;2023-03-18T15:49:41;30.45;;;11.45;;
44694;SDS011;32845;59.422;17.930;2023-03-18T15:54:29;23.85;;;12.15;;
44694;SDS011;32845;59.422;17.930;2023-03-18T15:59:12;34.08;;;12.52;;
44694;SDS011;32845;59.422;17.930;2023-03-18T16:03:45;29.40;;;12.75;;
44694;SDS011;32845;59.422;17.930;2023-03-18T16:08:16;43.67;;;12.93;;
44694;SDS011;32845;59.422;17.930;2023-03-18T16:12:50;29.88;;;13.45;;
44694;SDS011;32845;59.422;17.930;2023-03-18T16:17:23;26.85;;;12.77;;
44694;SDS011;32845;59.422;17.930;2023-03-18T16:21:54;27.60;;;13.88;;
44694;SDS011;32845;59.422;17.930;2023-03-18T16:26:27;32.92;;;13.07;;
44694;SDS011;32845;59.422;17.930;2023-03-18T16:30:57;27.27;;;12.40;;
44694;SDS011;32845;59.422;17.930;2023-03-18T16:35:31;31.00;;;12.48;;
44694;SDS011;32845;59.422;17.930;2023-03-18T16:40:24;29.35;;;12.70;;
44694;SDS011;32845;59.422;17.930;2023-03-18T16:44:57;28.65;;;12.85;;
44694;SDS011;32845;59.422;17.930;2023-03-18T16:49:32;31.30;;;13.60;;
44694;SDS011;32845;59.422;17.930;2023-03-18T16:54:08;37.85;;;13.38;;
44694;SDS011;32845;59.422;17.930;2023-03-18T16:58:46;41.55;;;14.70;;
44694;SDS011;32845;59.422;17.930;2023-03-18T17:03:18;40.40;;;14.35;;
44694;SDS011;32845;59.422;17.930;2023-03-18T17:07:49;35.67;;;14.18;;
44694;SDS011;32845;59.422;17.930;2023-03-18T17:12:20;35.67;;;15.20;;
44694;SDS011;32845;59.422;17.930;2023-03-18T17:16:51;35.95;;;15.68;;
44694;SDS011;32845;59.422;17.930;2023-03-18T17:21:22;36.30;;;14.02;;
44694;SDS011;32845;59.422;17.930;2023-03-18T17:25:57;38.63;;;15.35;;
44694;SDS011;32845;59.422;17.930;2023-03-18T17:30:37;40.63;;;15.35;;
44694;SDS011;32845;59.422;17.930;2023-03-18T17:35:12;41.20;;;16.43;;
44694;SDS011;32845;59.422;17.930;2023-03-18T17:39:50;39.25;;;14.73;;
44694;SDS011;32845;59.422;17.930;2023-03-18T17:44:23;38.55;;;15.77;;
44694;SDS011;32845;59.422;17.930;2023-03-18T17:48:55;38.88;;;15.45;;
44694;SDS011;32845;59.422;17.930;2023-03-18T17:53:42;44.47;;;15.77;;
44694;SDS011;32845;59.422;17.930;2023-03-18T17:58:15;39.53;;;16.33;;
44694;SDS011;32845;59.422;17.930;2023-03-18T18:02:47;48.58;;;16.98;;
44694;SDS011;32845;59.422;17.930;2023-03-18T18:07:19;41.45;;;15.80;;
44694;SDS011;32845;59.422;17.930;2023-03-18T18:11:50;46.42;;;17.10;;
44694;SDS011;32845;59.422;17.930;2023-03-18T18:16:21;41.13;;;16.55;;
44694;SDS011;32845;59.422;17.930;2023-03-18T18:25:27;48.58;;;18.10;;
44694;SDS011;32845;59.422;17.930;2023-03-18T18:29:59;51.67;;;19.40;;
44694;SDS011;32845;59.422;17.930;2023-03-18T18:34:30;47.58;;;17.48;;
44694;SDS011;32845;59.422;17.930;2023-03-18T18:39:00;62.63;;;19.58;;
44694;SDS011;32845;59.422;17.930;2023-03-18T18:43:32;46.88;;;17.52;;
44694;SDS011;32845;59.422;17.930;2023-03-18T18:48:09;57.25;;;18.45;;
44694;SDS011;32845;59.422;17.930;2023-03-18T18:52:47;58.35;;;18.88;;
44694;SDS011;32845;59.422;17.930;2023-03-18T18:57:22;56.78;;;19.92;;
44694;SDS011;32845;59.422;17.930;2023-03-18T19:01:55;51.00;;;20.27;;
44694;SDS011;32845;59.422;17.930;2023-03-18T19:06:27;55.75;;;19.80;;
44694;SDS011;32845;59.422;17.930;2023-03-18T19:11:01;54.88;;;19.83;;
44694;SDS011;32845;59.422;17.930;2023-03-18T19:15:34;53.72;;;19.83;;
44694;SDS011;32845;59.422;17.930;2023-03-18T19:20:10;58.85;;;20.52;;
44694;SDS011;32845;59.422;17.930;2023-03-18T19:24:52;60.53;;;20.23;;
44694;SDS011;32845;59.422;17.930;2023-03-18T19:29:23;59.95;;;19.63;;
44694;SDS011;32845;59.422;17.930;2023-03-18T19:33:54;49.47;;;19.42;;
44694;SDS011;32845;59.422;17.930;2023-03-18T19:38:25;63.88;;;18.50;;
44694;SDS011;32845;59.422;17.930;2023-03-18T19:42:56;48.92;;;19.30;;
44694;SDS011;32845;59.422;17.930;2023-03-18T19:47:27;52.85;;;18.75;;
44694;SDS011;32845;59.422;17.930;2023-03-18T19:51:59;61.50;;;19.60;;
44694;SDS011;32845;59.422;17.930;2023-03-18T19:56:35;78.07;;;20.50;;
44694;SDS011;32845;59.422;17.930;2023-03-18T20:01:07;69.85;;;21.50;;
44694;SDS011;32845;59.422;17.930;2023-03-18T20:05:37;58.53;;;19.73;;
44694;SDS011;32845;59.422;17.930;2023-03-18T20:10:09;65.70;;;20.48;;
44694;SDS011;32845;59.422;17.930;2023-03-18T20:14:41;55.78;;;19.42;;
44694;SDS011;32845;59.422;17.930;2023-03-18T20:19:12;66.40;;;20.67;;
44694;SDS011;32845;59.422;17.930;2023-03-18T20:23:43;64.00;;;20.33;;
44694;SDS011;32845;59.422;17.930;2023-03-18T20:28:15;67.70;;;20.98;;
44694;SDS011;32845;59.422;17.930;2023-03-18T20:32:47;72.15;;;20.58;;
44694;SDS011;32845;59.422;17.930;2023-03-18T20:37:19;57.72;;;21.88;;
44694;SDS011;32845;59.422;17.930;2023-03-18T20:41:51;72.38;;;22.85;;
44694;SDS011;32845;59.422;17.930;2023-03-18T20:46:22;67.60;;;22.27;;
44694;SDS011;32845;59.422;17.930;2023-03-18T20:50:52;69.88;;;23.88;;
44694;SDS011;32845;59.422;17.930;2023-03-18T20:55:25;79.05;;;23.98;;
44694;SDS011;32845;59.422;17.930;2023-03-18T20:59:59;78.63;;;22.75;;
44694;SDS011;32845;59.422;17.930;2023-03-18T21:04:30;82.00;;;21.75;;
44694;SDS011;32845;59.422;17.930;2023-03-18T21:09:00;72.22;;;22.65;;
44694;SDS011;32845;59.422;17.930;2023-03-18T21:13:35;91.55;;;23.20;;
44694;SDS011;32845;59.422;17.930;2023-03-18T21:18:07;91.07;;;24.98;;
44694;SDS011;32845;59.422;17.930;2023-03-18T21:22:41;77.60;;;23.08;;
44694;SDS011;32845;59.422;17.930;2023-03-18T21:27:16;110.85;;;22.65;;
44694;SDS011;32845;59.422;17.930;2023-03-18T21:31:48;136.77;;;22.30;;
44694;SDS011;32845;59.422;17.930;2023-03-18T21:36:20;103.80;;;21.52;;
44694;SDS011;32845;59.422;17.930;2023-03-18T21:40:51;117.32;;;20.92;;
44694;SDS011;32845;59.422;17.930;2023-03-18T21:45:23;113.60;;;25.90;;
44694;SDS011;32845;59.422;17.930;2023-03-18T21:49:54;150.25;;;23.25;;
44694;SDS011;32845;59.422;17.930;2023-03-18T21:54:24;105.05;;;22.35;;
44694;SDS011;32845;59.422;17.930;2023-03-18T21:58:55;123.28;;;20.63;;
44694;SDS011;32845;59.422;17.930;2023-03-18T22:03:27;151.23;;;19.90;;
44694;SDS011;32845;59.422;17.930;2023-03-18T22:07:58;111.82;;;23.23;;
44694;SDS011;32845;59.422;17.930;2023-03-18T22:12:30;128.75;;;18.40;;
44694;SDS011;32845;59.422;17.930;2023-03-18T22:17:01;62.78;;;17.40;;
44694;SDS011;32845;59.422;17.930;2023-03-18T22:21:32;84.70;;;18.02;;
44694;SDS011;32845;59.422;17.930;2023-03-18T22:26:03;146.73;;;19.10;;
44694;SDS011;32845;59.422;17.930;2023-03-18T22:30:34;111.40;;;18.70;;
44694;SDS011;32845;59.422;17.930;2023-03-18T22:35:06;161.38;;;17.77;;
44694;SDS011;32845;59.422;17.930;2023-03-18T22:39:44;157.73;;;16.40;;
44694;SDS011;32845;59.422;17.930;2023-03-18T22:44:19;77.80;;;15.15;;
44694;SDS011;32845;59.422;17.930;2023-03-18T22:48:52;70.53;;;14.63;;
44694;SDS011;32845;59.422;17.930;2023-03-18T22:53:27;58.47;;;14.32;;
44694;SDS011;32845;59.422;17.930;2023-03-18T22:58:00;117.95;;;13.50;;
44694;SDS011;32845;59.422;17.930;2023-03-18T23:02:31;57.20;;;15.23;;
44694;SDS011;32845;59.422;17.930;2023-03-18T23:07:02;101.20;;;14.85;;
44694;SDS011;32845;59.422;17.930;2023-03-18T23:11:33;98.55;;;13.70;;
44694;SDS011;32845;59.422;17.930;2023-03-18T23:16:04;158.73;;;13.98;;
44694;SDS011;32845;59.422;17.930;2023-03-18T23:20:36;93.32;;;13.52;;
44694;SDS011;32845;59.422;17.930;2023-03-18T23:25:09;147.10;;;13.77;;
44694;SDS011;32845;59.422;17.930;2023-03-18T23:29:43;57.58;;;14.00;;
44694;SDS011;32845;59.422;17.930;2023-03-18T23:34:14;35.60;;;12.27;;
44694;SDS011;32845;59.422;17.930;2023-03-18T23:38:45;42.47;;;13.45;;
44694;SDS011;32845;59.422;17.930;2023-03-18T23:43:16;43.25;;;13.63;;
44694;SDS011;32845;59.422;17.930;2023-03-18T23:47:50;53.20;;;14.20;;
44694;SDS011;32845;59.422;17.930;2023-03-18T23:52:20;52.95;;;13.57;;
44694;SDS011;32845;59.422;17.930;2023-03-18T23:56:51;72.65;;;12.60;;
